Time;durP1;ratioP1;P1;durP2;ratioP2;P2;SDS_P1;SDS_P2;PMS_P1;PMS_P2;Temp;Humidity;BMP_temperature;BMP_pressure;BME280_temperature;BME280_humidity;BME280_pressure;Samples;Min_cycle;Max_cycle;Signal;HPM_P1;HPM_P2
2021/12/31 00:00:27;;;;;;;11.48;7.72;;;;;;;3.20;97.48;97803.94;1824564;78;20852;-66
2021/12/31 00:02:54;;;;;;;9.70;6.75;;;;;;;3.17;97.27;97809.72;1775405;80;21401;-65
2021/12/31 00:05:21;;;;;;;9.68;7.03;;;;;;;3.18;97.07;97804.16;1769990;80;20890;-60
2021/12/31 00:07:48;;;;;;;11.25;7.00;;;;;;;3.21;97.00;97806.84;1777557;80;20921;-64
2021/12/31 00:10:14;;;;;;;10.68;6.80;;;;;;;3.23;96.64;97812.16;1810093;78;21453;-63
2021/12/31 00:12:43;;;;;;;9.58;6.65;;;;;;;3.26;96.02;97807.71;1771406;80;21012;-65
2021/12/31 00:15:11;;;;;;;9.58;6.20;;;;;;;3.28;95.60;97814.06;1773565;80;20854;-61
2021/12/31 00:17:40;;;;;;;9.85;5.78;;;;;;;3.29;95.53;97821.78;1774757;80;20942;-63
2021/12/31 00:20:15;;;;;;;8.25;6.05;;;;;;;3.31;95.18;97825.49;1777287;80;21056;-64
2021/12/31 00:25:25;;;;;;;8.15;6.25;;;;;;;3.33;94.83;97816.78;1816427;78;20932;-63
2021/12/31 00:27:52;;;;;;;7.35;5.45;;;;;;;3.31;94.56;97814.39;1804026;78;20988;-61
2021/12/31 00:30:19;;;;;;;8.83;5.95;;;;;;;3.31;94.40;97803.80;1777198;80;20870;-64
2021/12/31 00:32:48;;;;;;;8.30;5.60;;;;;;;3.31;94.35;97817.55;1822292;78;20924;-62
2021/12/31 00:35:15;;;;;;;8.83;5.97;;;;;;;3.31;94.27;97814.91;1815926;78;21103;-61
2021/12/31 00:37:43;;;;;;;8.60;5.83;;;;;;;3.32;94.22;97812.55;1777157;80;20918;-61
2021/12/31 00:40:13;;;;;;;8.05;5.85;;;;;;;3.33;94.13;97812.80;1782716;80;20925;-63
2021/12/31 00:42:40;;;;;;;9.23;4.87;;;;;;;3.35;94.06;97808.86;1773731;80;20866;-64
2021/12/31 00:45:09;;;;;;;7.30;4.75;;;;;;;3.39;93.77;97794.62;1782745;80;20886;-65
2021/12/31 00:47:36;;;;;;;7.33;5.37;;;;;;;3.42;93.52;97798.88;1782896;80;21054;-61
2021/12/31 00:50:03;;;;;;;9.08;5.10;;;;;;;3.44;93.44;97809.21;1782185;80;21563;-60
2021/12/31 00:52:33;;;;;;;8.58;5.20;;;;;;;3.47;93.30;97817.99;1769525;80;21004;-60
2021/12/31 00:54:59;;;;;;;7.15;4.45;;;;;;;3.50;93.04;97814.05;1745589;81;21409;-61
2021/12/31 00:57:26;;;;;;;6.33;4.35;;;;;;;3.51;92.81;97814.34;1749912;82;20898;-65
2021/12/31 00:59:53;;;;;;;5.72;4.50;;;;;;;3.50;92.63;97812.73;1748536;81;21105;-65
2021/12/31 01:02:23;;;;;;;9.05;5.53;;;;;;;3.49;92.51;97815.89;1747501;81;21016;-60
2021/12/31 01:04:49;;;;;;;7.87;5.25;;;;;;;3.46;92.34;97835.72;1753001;80;20922;-61
2021/12/31 01:07:16;;;;;;;8.33;4.87;;;;;;;3.43;92.30;97827.48;1767250;80;20926;-66
2021/12/31 01:09:43;;;;;;;8.63;4.60;;;;;;;3.42;92.52;97829.84;1772309;81;20875;-64
2021/12/31 01:12:13;;;;;;;6.45;4.87;;;;;;;3.42;92.62;97841.77;1754472;80;20910;-61
2021/12/31 01:14:55;;;;;;;6.00;4.83;;;;;;;3.40;92.72;97829.30;1761763;80;20974;-66
2021/12/31 01:17:14;;;;;;;6.80;4.62;;;;;;;3.34;93.04;97823.69;1762342;81;20954;-66
2021/12/31 01:19:50;;;;;;;10.05;4.30;;;;;;;3.32;93.40;97823.14;1771902;80;20938;-64
2021/12/31 01:22:28;;;;;;;9.85;5.05;;;;;;;3.31;93.88;97829.47;1758666;80;20984;-64
2021/12/31 01:24:51;;;;;;;6.50;4.20;;;;;;;3.31;94.14;97824.17;1762941;80;21085;-64
2021/12/31 01:27:18;;;;;;;7.92;5.05;;;;;;;3.30;94.88;97822.56;1755649;80;20866;-62
2021/12/31 01:29:45;;;;;;;5.45;4.50;;;;;;;3.29;95.06;97817.00;1772244;81;21000;-60
2021/12/31 01:32:12;;;;;;;9.73;4.17;;;;;;;3.31;95.19;97818.36;1772195;81;20997;-63
2021/12/31 01:34:40;;;;;;;6.65;4.17;;;;;;;3.31;95.74;97820.20;1759842;80;20937;-63
2021/12/31 01:37:08;;;;;;;6.10;3.98;;;;;;;3.33;96.05;97823.39;1753047;80;21112;-60
2021/12/31 01:39:35;;;;;;;6.05;4.03;;;;;;;3.37;96.35;97812.58;1753160;80;20911;-64
2021/12/31 01:42:07;;;;;;;7.58;3.67;;;;;;;3.40;96.70;97801.50;1767738;80;20911;-62
2021/12/31 01:44:41;;;;;;;5.22;3.70;;;;;;;3.43;96.76;97807.63;1768126;80;21092;-61
2021/12/31 01:47:08;;;;;;;6.47;4.10;;;;;;;3.44;96.94;97807.89;1748973;80;21489;-65
2021/12/31 01:49:38;;;;;;;6.70;4.50;;;;;;;3.44;96.80;97807.89;1761149;80;21104;-65
2021/12/31 01:52:05;;;;;;;6.00;3.95;;;;;;;3.44;96.68;97810.53;1757295;80;20954;-62
2021/12/31 01:54:33;;;;;;;6.53;3.80;;;;;;;3.41;96.79;97796.49;1761729;80;20957;-61
2021/12/31 01:57:02;;;;;;;8.73;4.22;;;;;;;3.41;96.85;97800.47;1759783;81;20942;-66
2021/12/31 01:59:29;;;;;;;6.67;4.25;;;;;;;3.41;97.08;97795.94;1767948;80;20878;-67
2021/12/31 02:01:56;;;;;;;5.47;3.83;;;;;;;3.43;97.11;97801.01;1772079;80;21151;-64
2021/12/31 02:04:23;;;;;;;8.40;3.98;;;;;;;3.44;97.04;97797.30;1771028;80;21455;-63
2021/12/31 02:06:51;;;;;;;6.58;3.98;;;;;;;3.44;97.00;97788.03;1757516;80;20950;-65
2021/12/31 02:09:18;;;;;;;8.80;4.17;;;;;;;3.44;96.92;97792.00;1740459;80;20890;-66
2021/12/31 02:11:44;;;;;;;9.25;4.22;;;;;;;3.47;96.76;97791.52;1764530;80;21495;-66
2021/12/31 02:14:11;;;;;;;5.85;4.10;;;;;;;3.49;96.45;97797.35;1772188;80;21119;-66
2021/12/31 02:16:38;;;;;;;6.30;4.05;;;;;;;3.51;96.27;97805.07;1759837;80;21366;-66
2021/12/31 02:19:16;;;;;;;4.92;3.72;;;;;;;3.52;95.91;97819.38;1760477;80;20914;-62
2021/12/31 02:21:45;;;;;;;6.75;3.90;;;;;;;3.53;95.54;97815.69;1753325;80;20953;-65
2021/12/31 02:24:13;;;;;;;5.53;3.70;;;;;;;3.55;95.31;97801.67;1772467;80;21024;-64
2021/12/31 02:26:40;;;;;;;5.03;3.75;;;;;;;3.57;94.98;97808.03;1772112;80;21105;-66
2021/12/31 02:29:06;;;;;;;5.50;3.72;;;;;;;3.58;94.76;97803.80;1772168;81;21362;-65
2021/12/31 02:31:34;;;;;;;6.05;3.47;;;;;;;3.60;94.16;97805.70;1772131;80;20942;-61
2021/12/31 02:34:00;;;;;;;6.67;4.08;;;;;;;3.61;93.77;97802.50;1742506;81;20906;-61
2021/12/31 02:36:27;;;;;;;6.05;3.83;;;;;;;3.61;93.61;97805.95;1761780;80;20854;-60
2021/12/31 02:38:53;;;;;;;6.08;3.40;;;;;;;3.62;93.56;97796.17;1757483;80;21091;-60
2021/12/31 02:41:20;;;;;;;5.10;3.60;;;;;;;3.62;93.42;97805.44;1750508;80;21441;-60
2021/12/31 02:43:47;;;;;;;4.87;3.30;;;;;;;3.62;93.26;97786.38;1764689;80;20886;-66
2021/12/31 02:46:14;;;;;;;5.20;3.67;;;;;;;3.61;93.32;97784.77;1753283;80;20926;-65
2021/12/31 02:48:41;;;;;;;4.55;3.67;;;;;;;3.58;93.64;97783.16;1749608;82;20847;-61
2021/12/31 02:51:08;;;;;;;6.95;4.12;;;;;;;3.52;93.92;97784.14;1749461;80;21110;-66
2021/12/31 02:53:38;;;;;;;6.70;4.05;;;;;;;3.49;94.19;97777.49;1769485;80;20977;-65
2021/12/31 02:56:08;;;;;;;6.65;3.90;;;;;;;3.46;94.28;97768.75;1765382;80;20944;-65
2021/12/31 02:58:36;;;;;;;6.05;4.00;;;;;;;3.44;94.49;97770.81;1749505;80;20890;-61
2021/12/31 03:01:04;;;;;;;8.03;4.30;;;;;;;3.46;94.57;97762.13;1749514;80;21558;-64
2021/12/31 03:03:33;;;;;;;5.53;3.47;;;;;;;3.49;94.86;97760.83;1765900;80;21840;-66
2021/12/31 03:06:00;;;;;;;3.87;3.47;;;;;;;3.52;95.00;97770.38;1766003;80;20910;-60
2021/12/31 03:08:34;;;;;;;7.42;4.00;;;;;;;3.55;95.01;97757.17;1756649;80;21524;-65
2021/12/31 03:11:03;;;;;;;7.40;4.50;;;;;;;3.59;95.06;97769.66;1753479;80;21535;-63
2021/12/31 03:13:30;;;;;;;4.60;3.55;;;;;;;3.59;95.26;97767.53;1749684;80;21456;-63
2021/12/31 03:15:59;;;;;;;5.50;3.50;;;;;;;3.59;95.42;97772.30;1765204;80;21113;-60
2021/12/31 03:18:26;;;;;;;4.08;3.12;;;;;;;3.61;95.70;97768.87;1750731;80;20898;-64
2021/12/31 03:20:59;;;;;;;5.20;3.98;;;;;;;3.58;95.67;97765.95;1749504;80;20918;-66
2021/12/31 03:23:27;;;;;;;4.75;3.52;;;;;;;3.54;95.91;97762.98;1765953;80;20974;-61
2021/12/31 03:25:53;;;;;;;3.72;3.02;;;;;;;3.51;96.02;97766.13;1772037;80;20942;-63
2021/12/31 03:28:21;;;;;;;5.03;3.05;;;;;;;3.50;96.11;97770.36;1772192;81;21122;-62
2021/12/31 03:30:48;;;;;;;4.85;3.52;;;;;;;3.53;96.58;97776.48;1757221;80;20882;-61
2021/12/31 03:33:15;;;;;;;5.97;3.60;;;;;;;3.54;96.72;97768.80;1757500;80;20973;-61
2021/12/31 03:40:49;;;;;;;5.45;3.87;;;;;;;3.52;96.89;97766.41;1758264;80;21116;-62
2021/12/31 03:43:16;;;;;;;5.25;3.67;;;;;;;3.53;96.89;97779.94;1753191;80;20918;-64
2021/12/31 03:45:44;;;;;;;4.30;3.72;;;;;;;3.55;96.84;97769.08;1761498;80;21476;-68
2021/12/31 03:48:11;;;;;;;5.83;3.67;;;;;;;3.56;96.82;97767.50;1759351;80;20891;-61
2021/12/31 03:50:38;;;;;;;4.92;3.40;;;;;;;3.59;96.86;97753.77;1759008;80;20895;-65
2021/12/31 03:53:05;;;;;;;4.42;3.20;;;;;;;3.59;97.14;97761.71;1756769;81;21732;-66
2021/12/31 03:55:32;;;;;;;5.28;3.58;;;;;;;3.61;97.15;97768.87;1758340;80;21020;-63
2021/12/31 03:57:58;;;;;;;4.20;3.55;;;;;;;3.61;97.27;97772.84;1769721;80;20970;-62
2021/12/31 04:00:28;;;;;;;6.47;3.00;;;;;;;3.61;97.43;97774.69;1757529;80;21465;-64
2021/12/31 04:02:55;;;;;;;3.58;2.83;;;;;;;3.62;97.49;97769.16;1771956;80;20961;-66
2021/12/31 04:05:26;;;;;;;3.55;2.60;;;;;;;3.61;97.79;97759.61;1759986;80;21709;-62
2021/12/31 04:07:54;;;;;;;4.33;3.02;;;;;;;3.60;97.84;97764.64;1755929;80;20989;-64
2021/12/31 04:10:25;;;;;;;3.35;3.00;;;;;;;3.61;98.08;97764.91;1760361;80;21016;-65
2021/12/31 04:12:52;;;;;;;4.92;2.83;;;;;;;3.61;98.18;97758.28;1767925;80;21075;-64
2021/12/31 04:15:20;;;;;;;3.70;2.70;;;;;;;3.62;98.42;97767.84;1760592;80;21405;-66
2021/12/31 04:17:46;;;;;;;4.47;3.02;;;;;;;3.65;98.53;97764.66;1768083;80;21065;-63
2021/12/31 04:20:19;;;;;;;6.22;3.33;;;;;;;3.66;98.53;97754.36;1771541;80;20914;-61
2021/12/31 04:22:50;;;;;;;6.05;3.12;;;;;;;3.66;98.63;97757.01;1749216;80;20977;-65
2021/12/31 04:25:11;;;;;;;3.98;2.67;;;;;;;3.69;99.08;97768.44;1801783;79;20920;-61
2021/12/31 04:27:38;;;;;;;4.33;2.65;;;;;;;3.70;99.37;97755.45;1772916;80;20918;-66
2021/12/31 04:30:07;;;;;;;3.67;2.85;;;;;;;3.67;99.38;97755.16;1775868;80;21774;-62
2021/12/31 04:32:35;;;;;;;3.27;2.65;;;;;;;3.63;99.68;97753.53;1824466;78;20899;-61
2021/12/31 04:35:01;;;;;;;3.80;2.10;;;;;;;3.62;100.00;97745.33;1769300;80;20972;-65
2021/12/31 04:37:28;;;;;;;2.65;2.10;;;;;;;3.63;100.00;97765.45;1813658;78;20849;-61
2021/12/31 04:39:55;;;;;;;2.90;2.20;;;;;;;3.64;100.00;97756.47;1777271;80;20978;-65
2021/12/31 04:42:22;;;;;;;2.50;2.20;;;;;;;3.66;100.00;97757.01;1775126;80;21110;-62
2021/12/31 04:44:48;;;;;;;2.62;2.08;;;;;;;3.67;100.00;97764.44;1776585;80;20870;-65
2021/12/31 04:47:15;;;;;;;2.15;1.70;;;;;;;3.72;100.00;97757.86;1812051;78;21639;-65
2021/12/31 04:49:42;;;;;;;2.62;1.92;;;;;;;3.73;100.00;97744.35;1771127;80;21512;-68
2021/12/31 04:52:09;;;;;;;2.35;2.15;;;;;;;3.73;100.00;97748.33;1772602;80;20882;-60
2021/12/31 04:54:36;;;;;;;3.95;2.08;;;;;;;3.75;100.00;97734.82;1777130;80;21099;-64
2021/12/31 04:57:04;;;;;;;2.67;2.05;;;;;;;3.76;100.00;97738.56;1773327;80;21437;-64
2021/12/31 04:59:31;;;;;;;2.10;1.82;;;;;;;3.78;100.00;97735.13;1777202;80;20946;-65
2021/12/31 05:01:59;;;;;;;2.75;2.10;;;;;;;3.80;100.00;97737.52;1769728;80;20922;-67
2021/12/31 05:04:26;;;;;;;3.25;2.08;;;;;;;3.79;100.00;97751.83;1773626;80;20902;-64
2021/12/31 05:06:53;;;;;;;2.33;1.80;;;;;;;3.81;100.00;97744.42;1777302;80;21897;-65
2021/12/31 05:09:21;;;;;;;4.83;2.47;;;;;;;3.79;100.00;97745.98;1777095;80;21461;-63
2021/12/31 05:11:48;;;;;;;2.55;2.10;;;;;;;3.82;100.00;97743.36;1777092;80;20921;-61
2021/12/31 05:14:15;;;;;;;2.50;2.00;;;;;;;3.82;100.00;97733.56;1765156;80;20989;-63
2021/12/31 05:16:42;;;;;;;2.70;2.20;;;;;;;3.84;100.00;97757.95;1776862;80;21045;-65
2021/12/31 05:19:08;;;;;;;2.55;1.90;;;;;;;3.86;100.00;97744.47;1770101;80;21109;-65
2021/12/31 05:21:35;;;;;;;2.10;1.90;;;;;;;3.86;100.00;97742.59;1777330;80;21469;-64
2021/12/31 05:24:03;;;;;;;2.05;1.62;;;;;;;3.87;100.00;97740.23;1777140;80;20941;-62
2021/12/31 05:26:31;;;;;;;2.65;2.00;;;;;;;3.86;100.00;97745.80;1773914;80;21368;-65
2021/12/31 05:28:58;;;;;;;15.98;6.65;;;;;;;3.86;100.00;97741.82;1768808;80;20918;-63
2021/12/31 05:31:24;;;;;;;2.50;2.10;;;;;;;3.87;100.00;97751.34;1777150;80;21733;-63
2021/12/31 05:33:51;;;;;;;2.25;2.00;;;;;;;3.89;100.00;97756.67;1774360;80;21594;-62
2021/12/31 05:36:18;;;;;;;1.87;1.67;;;;;;;3.92;100.00;97748.74;1777106;80;21016;-66
2021/12/31 05:38:46;;;;;;;1.67;1.55;;;;;;;3.92;100.00;97746.09;1775233;80;20962;-61
2021/12/31 05:41:12;;;;;;;2.15;1.82;;;;;;;3.91;100.00;97750.59;1766360;80;21499;-60
2021/12/31 05:43:39;;;;;;;2.00;1.70;;;;;;;3.93;100.00;97733.13;1785490;79;21161;-62
2021/12/31 05:46:06;;;;;;;1.70;1.60;;;;;;;3.93;100.00;97732.58;1804179;78;20900;-64
2021/12/31 05:48:33;;;;;;;1.30;1.20;;;;;;;3.94;100.00;97741.34;1777162;80;20930;-61
2021/12/31 05:51:01;;;;;;;2.75;1.37;;;;;;;3.95;100.00;97744.27;1773361;80;21389;-66
2021/12/31 05:53:27;;;;;;;1.42;1.32;;;;;;;3.94;100.00;97760.69;1777168;80;20890;-63
2021/12/31 05:55:54;;;;;;;3.40;1.40;;;;;;;3.94;100.00;97755.39;1775033;80;21101;-61
2021/12/31 05:58:20;;;;;;;1.85;1.50;;;;;;;3.93;100.00;97764.38;1777105;80;20942;-62
2021/12/31 06:00:47;;;;;;;2.22;1.50;;;;;;;3.92;100.00;97761.99;1775744;80;20846;-61
2021/12/31 06:03:14;;;;;;;1.80;1.60;;;;;;;3.93;100.00;97765.70;1816708;78;21394;-65
2021/12/31 06:05:42;;;;;;;2.10;1.52;;;;;;;3.93;100.00;97766.25;1769562;80;21594;-63
2021/12/31 06:08:09;;;;;;;1.62;1.50;;;;;;;3.95;100.00;97767.61;1782775;80;21725;-65
2021/12/31 06:10:40;;;;;;;1.12;1.02;;;;;;;3.97;100.00;97772.64;1777049;80;20898;-60
2021/12/31 06:13:11;;;;;;;2.47;1.27;;;;;;;3.93;100.00;97759.08;1770092;80;20929;-63
2021/12/31 06:15:37;;;;;;;1.40;1.30;;;;;;;3.93;100.00;97771.00;1740495;81;20898;-66
2021/12/31 06:18:05;;;;;;;1.52;1.30;;;;;;;3.91;100.00;97763.84;1761985;79;20920;-64
2021/12/31 06:20:36;;;;;;;1.25;1.15;;;;;;;3.92;100.00;97768.09;1773229;80;20954;-63
2021/12/31 06:23:04;;;;;;;1.37;1.20;;;;;;;3.95;100.00;97764.95;1772115;80;21057;-66
2021/12/31 06:25:30;;;;;;;1.92;1.57;;;;;;;3.99;100.00;97757.28;1812031;78;20988;-66
2021/12/31 06:27:58;;;;;;;1.75;1.37;;;;;;;3.99;100.00;97761.25;1807975;78;20936;-62
2021/12/31 06:30:24;;;;;;;1.62;1.52;;;;;;;3.98;100.00;97756.47;1777438;80;20894;-64
2021/12/31 06:32:52;;;;;;;1.80;1.40;;;;;;;3.97;100.00;97753.57;1777193;80;21877;-62
2021/12/31 06:35:18;;;;;;;1.80;1.30;;;;;;;3.96;100.00;97772.35;1771072;80;20913;-61
2021/12/31 06:37:47;;;;;;;1.10;1.00;;;;;;;3.97;100.00;97765.50;1773421;80;20914;-61
2021/12/31 06:40:15;;;;;;;1.70;1.40;;;;;;;3.98;100.00;97767.63;1765631;80;21012;-65
2021/12/31 06:42:42;;;;;;;1.92;1.52;;;;;;;3.95;100.00;97770.77;1817464;78;21033;-61
2021/12/31 06:45:09;;;;;;;2.42;1.45;;;;;;;3.95;100.00;97780.05;1777129;80;21172;-60
2021/12/31 06:47:36;;;;;;;2.40;1.47;;;;;;;3.95;100.00;97773.42;1770857;80;20974;-63
2021/12/31 06:50:04;;;;;;;1.40;1.30;;;;;;;3.97;100.00;97774.77;1781844;80;20906;-61
2021/12/31 06:52:38;;;;;;;1.45;1.35;;;;;;;3.98;100.00;97775.03;1774067;80;21472;-61
2021/12/31 06:55:07;;;;;;;0.98;0.90;;;;;;;3.97;100.00;97778.74;1768227;80;20918;-61
2021/12/31 06:57:35;;;;;;;0.90;0.90;;;;;;;3.96;100.00;97772.35;1776920;80;21445;-66
2021/12/31 07:00:05;;;;;;;1.25;1.10;;;;;;;3.99;100.00;97769.20;1773420;80;21091;-64
2021/12/31 07:02:32;;;;;;;1.20;1.10;;;;;;;3.99;100.00;97768.69;1777100;80;21049;-66
2021/12/31 07:04:59;;;;;;;1.10;0.95;;;;;;;4.00;100.00;97772.92;1776618;80;20874;-67
2021/12/31 07:07:28;;;;;;;1.07;0.98;;;;;;;4.04;100.00;97774.03;1777049;80;20862;-66
2021/12/31 07:09:54;;;;;;;1.02;0.90;;;;;;;4.08;100.00;97784.91;1773438;80;21519;-63
2021/12/31 07:12:21;;;;;;;0.98;0.88;;;;;;;4.06;100.00;97763.97;1763208;80;20890;-59
2021/12/31 07:14:49;;;;;;;0.98;0.93;;;;;;;4.05;100.00;97772.96;1804884;78;20928;-61
2021/12/31 07:17:16;;;;;;;0.85;0.85;;;;;;;4.05;100.00;97772.96;1771724;80;21610;-61
2021/12/31 07:19:43;;;;;;;0.70;0.70;;;;;;;4.08;100.00;97773.79;1773192;80;20944;-65
2021/12/31 07:22:10;;;;;;;1.02;0.80;;;;;;;4.09;100.00;97777.24;1809061;78;21701;-61
2021/12/31 07:24:38;;;;;;;2.17;1.20;;;;;;;4.09;100.00;97782.02;1807547;78;21399;-61
2021/12/31 07:27:05;;;;;;;1.20;1.10;;;;;;;4.10;100.00;97774.84;1799753;78;20959;-63
2021/12/31 07:29:31;;;;;;;0.80;0.80;;;;;;;4.12;100.00;97781.50;1774284;80;20925;-61
2021/12/31 07:31:58;;;;;;;1.32;1.07;;;;;;;4.12;100.00;97791.33;1758569;80;20882;-61
2021/12/31 07:34:25;;;;;;;1.85;0.95;;;;;;;4.10;100.00;97779.62;1754581;81;21068;-60
2021/12/31 07:36:52;;;;;;;0.90;0.80;;;;;;;4.12;100.00;97792.10;1754508;81;20838;-60
2021/12/31 07:39:21;;;;;;;0.85;0.68;;;;;;;4.08;100.00;97792.86;1801512;78;21511;-60
2021/12/31 07:41:47;;;;;;;0.82;0.72;;;;;;;4.08;100.00;97784.39;1777951;80;20985;-65
2021/12/31 07:44:16;;;;;;;1.77;1.00;;;;;;;4.09;100.00;97784.67;1767498;80;21415;-66
2021/12/31 07:46:44;;;;;;;1.10;0.82;;;;;;;4.13;100.00;97783.63;1805968;79;21047;-63
2021/12/31 07:49:10;;;;;;;1.30;0.80;;;;;;;4.16;100.00;97789.75;1782128;79;20883;-64
2021/12/31 07:51:38;;;;;;;0.90;0.80;;;;;;;4.21;100.00;97787.66;1757353;79;21450;-61
2021/12/31 07:54:04;;;;;;;1.20;1.10;;;;;;;4.24;100.00;97779.22;1810661;78;20955;-60
2021/12/31 07:56:33;;;;;;;1.37;1.00;;;;;;;4.24;100.00;97785.84;1827359;77;20925;-60
2021/12/31 07:58:59;;;;;;;1.00;0.90;;;;;;;4.24;100.00;97774.69;1846743;77;21339;-61
2021/12/31 08:01:26;;;;;;;1.17;0.95;;;;;;;4.27;100.00;97788.77;1840746;77;20966;-65
2021/12/31 08:03:53;;;;;;;1.25;1.10;;;;;;;4.30;100.00;97779.51;1832659;77;20915;-65
2021/12/31 08:06:20;;;;;;;1.27;1.05;;;;;;;4.33;100.00;97783.79;1835958;77;21461;-60
2021/12/31 08:08:48;;;;;;;1.85;1.55;;;;;;;4.31;100.00;97783.77;1835466;77;20884;-66
2021/12/31 08:11:15;;;;;;;2.33;1.70;;;;;;;4.31;100.00;97778.47;1842404;77;21802;-60
2021/12/31 08:13:41;;;;;;;1.40;1.30;;;;;;;4.32;100.00;97788.00;1849130;77;20868;-60
2021/12/31 08:16:09;;;;;;;1.80;1.20;;;;;;;4.32;100.00;97790.66;1834544;77;20863;-63
2021/12/31 08:18:36;;;;;;;1.20;1.10;;;;;;;4.32;100.00;97796.77;1837463;77;21470;-65
2021/12/31 08:21:06;;;;;;;1.35;1.15;;;;;;;4.33;100.00;97792.27;1816216;78;21378;-66
2021/12/31 08:23:33;;;;;;;2.67;1.00;;;;;;;4.33;100.00;97797.56;1799624;78;21121;-61
2021/12/31 08:26:02;;;;;;;1.30;1.07;;;;;;;4.31;100.00;97807.63;1820523;78;20919;-63
2021/12/31 08:28:30;;;;;;;1.82;1.30;;;;;;;4.30;100.00;97799.39;1817120;78;20849;-65
2021/12/31 08:30:58;;;;;;;2.95;1.80;;;;;;;4.30;100.00;97804.70;1815830;78;21053;-65
2021/12/31 08:33:26;;;;;;;2.25;1.47;;;;;;;4.33;100.00;97806.84;1821320;78;20967;-66
2021/12/31 08:35:55;;;;;;;2.98;1.70;;;;;;;4.35;100.00;97800.76;1817152;78;21111;-64
2021/12/31 08:38:23;;;;;;;3.62;1.55;;;;;;;4.36;100.00;97795.74;1812997;78;20870;-65
2021/12/31 08:40:50;;;;;;;2.33;1.67;;;;;;;4.35;100.00;97798.11;1804705;78;20950;-68
2021/12/31 08:43:17;;;;;;;1.92;1.37;;;;;;;4.31;100.00;97797.03;1809849;79;20906;-64
2021/12/31 08:45:44;;;;;;;2.77;1.70;;;;;;;4.29;100.00;97789.31;1814580;78;21540;-63
2021/12/31 08:48:12;;;;;;;1.57;1.45;;;;;;;4.28;100.00;97794.88;1811781;78;20957;-61
2021/12/31 08:50:39;;;;;;;1.90;1.25;;;;;;;4.29;100.00;97798.59;1820797;78;20905;-63
2021/12/31 08:53:06;;;;;;;1.52;1.40;;;;;;;4.32;100.00;97795.95;1815830;79;20972;-65
2021/12/31 08:55:33;;;;;;;1.60;1.50;;;;;;;4.33;100.00;97785.64;1815394;78;21360;-65
2021/12/31 08:58:01;;;;;;;2.33;1.65;;;;;;;4.29;100.00;97798.59;1814746;78;20846;-65
2021/12/31 09:00:27;;;;;;;1.45;1.20;;;;;;;4.29;100.00;97791.16;1818915;78;21931;-61
2021/12/31 09:02:55;;;;;;;1.82;1.47;;;;;;;4.30;100.00;97788.79;1814137;77;20958;-65
2021/12/31 09:05:22;;;;;;;2.08;1.40;;;;;;;4.31;100.00;97797.03;1807596;78;21344;-61
2021/12/31 09:07:50;;;;;;;1.52;1.35;;;;;;;4.34;100.00;97788.55;1812450;79;20884;-61
2021/12/31 09:10:18;;;;;;;1.62;1.20;;;;;;;4.37;100.00;97793.34;1814749;79;20874;-65
2021/12/31 09:12:46;;;;;;;1.17;1.07;;;;;;;4.38;100.00;97788.33;1808760;79;21160;-61
2021/12/31 09:15:13;;;;;;;1.30;1.20;;;;;;;4.42;100.00;97789.41;1802648;78;20895;-65
2021/12/31 09:20:16;;;;;;;3.27;1.30;;;;;;;4.41;100.00;97785.14;1804074;79;20928;-60
2021/12/31 09:22:43;;;;;;;1.65;1.30;;;;;;;4.39;100.00;97788.06;1806242;79;21006;-61
2021/12/31 09:25:09;;;;;;;1.65;1.45;;;;;;;4.38;100.00;97781.70;1812049;78;21107;-60
2021/12/31 09:27:36;;;;;;;2.20;1.45;;;;;;;4.37;100.00;97785.39;1812107;79;20868;-65
2021/12/31 09:30:05;;;;;;;3.75;1.30;;;;;;;4.40;100.00;97787.54;1815876;79;21496;-63
2021/12/31 09:32:33;;;;;;;1.92;1.40;;;;;;;4.42;100.00;97792.86;1810906;79;20896;-61
2021/12/31 09:35:02;;;;;;;2.52;1.10;;;;;;;4.48;100.00;97790.50;1813434;78;21620;-63
2021/12/31 09:37:29;;;;;;;2.40;1.30;;;;;;;4.52;100.00;97790.80;1801276;78;21090;-61
2021/12/31 09:39:56;;;;;;;2.58;1.80;;;;;;;4.54;100.00;97794.00;1804967;78;21430;-62
2021/12/31 09:42:22;;;;;;;3.35;2.67;;;;;;;4.58;100.00;97789.77;1816073;79;21006;-60
2021/12/31 09:44:49;;;;;;;2.37;1.60;;;;;;;4.60;100.00;97785.80;1811239;79;20928;-63
2021/12/31 09:47:16;;;;;;;2.20;1.75;;;;;;;4.64;100.00;97786.11;1811564;79;20927;-60
2021/12/31 09:49:43;;;;;;;1.82;1.65;;;;;;;4.68;100.00;97789.31;1815846;78;21116;-63
2021/12/31 09:52:12;;;;;;;2.27;1.87;;;;;;;4.68;100.00;97788.51;1815905;79;21031;-65
2021/12/31 09:54:42;;;;;;;2.10;1.50;;;;;;;4.65;100.00;97791.66;1815765;79;20895;-63
2021/12/31 09:57:21;;;;;;;1.85;1.50;;;;;;;4.65;100.00;97792.99;1815930;79;20849;-62
2021/12/31 09:59:48;;;;;;;2.22;1.80;;;;;;;4.59;100.00;97796.13;1815857;78;20868;-60
2021/12/31 10:02:15;;;;;;;3.08;2.00;;;;;;;4.58;100.00;97784.46;1811118;78;21095;-65
2021/12/31 10:05:02;;;;;;;2.60;1.57;;;;;;;4.57;100.00;97782.33;1802365;79;20989;-73
2021/12/31 10:07:30;;;;;;;2.37;1.62;;;;;;;4.56;100.00;97791.88;1803582;78;20868;-65
2021/12/31 10:10:14;;;;;;;1.90;1.60;;;;;;;4.55;100.00;97792.92;1804291;79;21521;-60
2021/12/31 10:12:53;;;;;;;2.37;1.80;;;;;;;4.54;100.00;97788.17;1805824;78;20995;-67
2021/12/31 10:15:24;;;;;;;3.10;1.92;;;;;;;4.56;100.00;97789.23;1810678;78;21146;-66
2021/12/31 10:17:52;;;;;;;1.70;1.57;;;;;;;4.57;100.00;97777.03;1801639;78;20905;-60
2021/12/31 10:20:20;;;;;;;2.40;1.50;;;;;;;4.58;100.00;97775.98;1800076;78;20976;-61
2021/12/31 10:22:46;;;;;;;2.30;1.85;;;;;;;4.61;100.00;97777.33;1808557;78;20925;-60
2021/12/31 10:25:21;;;;;;;2.55;1.80;;;;;;;4.65;100.00;97771.25;1798934;79;20975;-60
2021/12/31 10:27:50;;;;;;;2.00;1.60;;;;;;;4.67;100.00;97768.33;1814753;78;21167;-61
2021/12/31 10:30:22;;;;;;;3.00;2.00;;;;;;;4.70;100.00;97763.31;1815712;79;20883;-60
2021/12/31 10:32:50;;;;;;;5.28;2.17;;;;;;;4.78;100.00;97759.38;1809189;79;20922;-60
2021/12/31 10:35:21;;;;;;;2.00;1.70;;;;;;;4.81;100.00;97759.65;1813920;78;20907;-63
2021/12/31 10:37:58;;;;;;;4.17;2.10;;;;;;;4.84;100.00;97749.85;1809174;79;20860;-63
2021/12/31 10:40:36;;;;;;;2.33;1.72;;;;;;;4.85;100.00;97747.45;1811049;79;20884;-63
2021/12/31 10:43:25;;;;;;;2.20;1.80;;;;;;;4.84;100.00;97744.55;1800384;78;20955;-63
2021/12/31 10:46:05;;;;;;;3.08;2.10;;;;;;;4.86;100.00;97745.60;1799020;78;20903;-63
2021/12/31 10:48:51;;;;;;;3.27;2.47;;;;;;;4.87;100.00;97741.91;1809357;79;20928;-66
2021/12/31 10:51:41;;;;;;;2.00;1.75;;;;;;;4.83;100.00;97743.45;1804910;79;20911;-63
2021/12/31 10:54:44;;;;;;;4.62;2.20;;;;;;;4.81;100.00;97733.63;1813107;79;21102;-61
2021/12/31 10:56:59;;;;;;;2.42;1.98;;;;;;;4.77;100.00;97733.37;1812945;79;20903;-60
2021/12/31 10:59:26;;;;;;;3.25;1.98;;;;;;;4.80;100.00;97737.36;1813717;78;20924;-61
2021/12/31 11:01:55;;;;;;;2.30;1.85;;;;;;;4.82;100.00;97729.94;1813167;79;20931;-66
2021/12/31 11:04:22;;;;;;;2.20;1.70;;;;;;;4.83;100.00;97735.50;1798911;79;20962;-60
2021/12/31 11:06:49;;;;;;;2.37;1.90;;;;;;;4.82;100.00;97728.61;1811362;78;21391;-61
2021/12/31 11:09:16;;;;;;;3.12;2.00;;;;;;;4.84;100.00;97729.14;1810010;78;20900;-63
2021/12/31 11:11:44;;;;;;;2.60;1.80;;;;;;;4.84;100.00;97725.97;1788992;78;20943;-67
2021/12/31 11:14:11;;;;;;;2.60;1.90;;;;;;;4.84;100.00;97730.47;1803739;79;20920;-61
2021/12/31 11:16:40;;;;;;;3.42;1.92;;;;;;;4.84;100.00;97723.84;1798223;78;20914;-63
2021/12/31 11:19:08;;;;;;;4.67;1.92;;;;;;;4.84;100.00;97721.98;1812595;79;21108;-60
2021/12/31 11:21:35;;;;;;;3.70;1.90;;;;;;;4.88;100.00;97724.09;1740401;80;20897;-60
2021/12/31 11:24:33;;;;;;;3.30;1.80;;;;;;;4.88;100.00;97715.62;1768668;81;20869;-60
2021/12/31 11:27:10;;;;;;;2.52;1.77;;;;;;;4.89;100.00;97715.90;1772452;80;20935;-63
2021/12/31 11:29:37;;;;;;;2.00;1.80;;;;;;;4.91;100.00;97714.30;1715817;80;20853;-65
2021/12/31 11:32:06;;;;;;;1.85;1.52;;;;;;;4.90;100.00;97716.15;1772745;80;21102;-61
2021/12/31 11:34:35;;;;;;;1.90;1.72;;;;;;;4.93;100.00;97712.18;1762929;80;20888;-63
2021/12/31 11:37:02;;;;;;;3.92;2.15;;;;;;;5.00;100.00;97709.55;1765969;80;21411;-65
2021/12/31 11:39:36;;;;;;;2.37;1.70;;;;;;;5.03;100.00;97701.08;1774998;80;21440;-61
2021/12/31 11:42:05;;;;;;;2.05;1.60;;;;;;;5.06;100.00;97702.42;1746570;82;20944;-61
2021/12/31 11:44:36;;;;;;;2.60;1.85;;;;;;;5.08;100.00;97693.13;1777093;80;20966;-64
2021/12/31 11:47:16;;;;;;;2.75;1.80;;;;;;;5.08;100.00;97702.95;1765815;80;20963;-66
2021/12/31 11:49:45;;;;;;;2.85;2.00;;;;;;;5.07;100.00;97698.16;1769366;80;20995;-65
2021/12/31 11:52:20;;;;;;;2.45;1.90;;;;;;;5.06;100.00;97691.27;1772186;80;21443;-67